Terminal Aerodrome Forecast
Issued by NWS Mt. Holly, NJ

Home | Current Version | Previous Version | Text Only | Print | Product List | Glossary On
Versions: 1 2 3 4 5 6 7 8 9 10 11 12 13 14 15 16 17 18 19 20 21 22 23 24 25 26 27 28 29 30 31 32 33 34 35 36 37 38 39 40 41 42 43 44
000
FTAK31 PANC 290153 AAA
TAFABE
TAF AMD
PABE 290153Z 2902/2924 16012G20KT P6SM -RA SCT015 OVC025
     FM290400 13006KT P6SM -SHRA SCT015 OVC050
     FM291500 12004KT P6SM BKN015 OVC035=

USA.gov is the U.S. government's official web portal to all federal, state and local government web resources and services.